TJBQ/BQN METAR and TAF weather

Enter ICAO airport designator
Station Type Date Time Source
TJBQ METAR 2019/11/21 03:05 UTC NOAA

TJBQ 210305Z 00000KT 10SM SCT020 SCT026 SCT030 25/23 A2994


Station Type Date Time Source
TJBQ Decoded METAR 2019/11/21 03:05 UTC NOAA

Aquadilla, Rafael Hernandez Airport, PR, United States (TJBQ) 18-30N 067-08W 69M
Nov 20, 2019 - 10:05 PM EST / 2019.11.21 0305 UTC
Wind: Calm:0
Visibility: 10 mile(s):0
Sky conditions: partly cloudy
Temperature: 77 F (25 C)
Dew Point: 73 F (23 C)
Relative Humidity: 88%
Pressure (altimeter): 29.94 in. Hg (1013 hPa)
ob: TJBQ 210305Z 00000KT 10SM SCT020 SCT026 SCT030 25/23 A2994
cycle: 3

Station Type Date Time Source
TJBQ TAF 2019/11/20 18:24 UTC NOAA

TAF TJBQ 201720Z 2018/2118 35008KT P6SM VCSH SCT025 SCT050
FM202300 VRB03KT P6SM VCSH SCT030
FM211200 04008KT P6SM SCT025

Example: see airport list